sensor_id;sensor_type;location;lat;lon;timestamp;temperature;humidity
9881;DHT22;4979;51.014;6.678;2024-02-21T00:00:10;9.20;99.90
9881;DHT22;4979;51.014;6.678;2024-02-21T00:02:37;9.20;99.90
9881;DHT22;4979;51.014;6.678;2024-02-21T00:05:02;9.20;99.90
9881;DHT22;4979;51.014;6.678;2024-02-21T00:07:28;9.20;99.90
9881;DHT22;4979;51.014;6.678;2024-02-21T00:09:54;9.20;99.90
9881;DHT22;4979;51.014;6.678;2024-02-21T00:12:20;9.20;99.90
9881;DHT22;4979;51.014;6.678;2024-02-21T00:14:46;9.20;99.90
9881;DHT22;4979;51.014;6.678;2024-02-21T00:17:11;9.20;99.90
9881;DHT22;4979;51.014;6.678;2024-02-21T00:19:37;9.20;99.90
9881;DHT22;4979;51.014;6.678;2024-02-21T00:22:02;9.20;99.90
9881;DHT22;4979;51.014;6.678;2024-02-21T00:24:28;9.20;99.90
9881;DHT22;4979;51.014;6.678;2024-02-21T00:26:54;9.20;99.90
9881;DHT22;4979;51.014;6.678;2024-02-21T00:29:19;9.20;99.90
9881;DHT22;4979;51.014;6.678;2024-02-21T00:31:45;9.20;99.90
9881;DHT22;4979;51.014;6.678;2024-02-21T00:34:10;9.20;99.90
9881;DHT22;4979;51.014;6.678;2024-02-21T00:36:38;9.20;99.90
9881;DHT22;4979;51.014;6.678;2024-02-21T00:39:03;9.20;99.90
9881;DHT22;4979;51.014;6.678;2024-02-21T00:41:29;9.20;99.90
9881;DHT22;4979;51.014;6.678;2024-02-21T00:43:55;9.20;99.90
9881;DHT22;4979;51.014;6.678;2024-02-21T00:46:20;9.20;99.90
9881;DHT22;4979;51.014;6.678;2024-02-21T00:48:46;9.20;99.90
9881;DHT22;4979;51.014;6.678;2024-02-21T00:51:11;9.20;99.90
9881;DHT22;4979;51.014;6.678;2024-02-21T00:53:37;9.20;99.90
9881;DHT22;4979;51.014;6.678;2024-02-21T00:56:05;9.20;99.90
9881;DHT22;4979;51.014;6.678;2024-02-21T00:58:30;9.20;99.90
9881;DHT22;4979;51.014;6.678;2024-02-21T01:00:56;9.20;99.90
9881;DHT22;4979;51.014;6.678;2024-02-21T01:03:22;9.20;99.90
9881;DHT22;4979;51.014;6.678;2024-02-21T01:05:47;9.20;99.90
9881;DHT22;4979;51.014;6.678;2024-02-21T01:08:13;9.10;99.90
9881;DHT22;4979;51.014;6.678;2024-02-21T01:10:38;9.20;99.90
9881;DHT22;4979;51.014;6.678;2024-02-21T01:13:04;9.20;99.90
9881;DHT22;4979;51.014;6.678;2024-02-21T01:15:29;9.20;99.90
9881;DHT22;4979;51.014;6.678;2024-02-21T01:17:55;9.20;99.90
9881;DHT22;4979;51.014;6.678;2024-02-21T01:20:21;9.20;99.90
9881;DHT22;4979;51.014;6.678;2024-02-21T01:22:46;9.20;99.90
9881;DHT22;4979;51.014;6.678;2024-02-21T01:25:12;9.20;99.90
9881;DHT22;4979;51.014;6.678;2024-02-21T01:27:38;9.20;99.90
9881;DHT22;4979;51.014;6.678;2024-02-21T01:30:04;9.20;99.90
9881;DHT22;4979;51.014;6.678;2024-02-21T01:32:31;9.20;99.90
9881;DHT22;4979;51.014;6.678;2024-02-21T01:34:56;9.20;99.90
9881;DHT22;4979;51.014;6.678;2024-02-21T01:37:22;9.20;99.90
9881;DHT22;4979;51.014;6.678;2024-02-21T01:39:47;9.10;99.90
9881;DHT22;4979;51.014;6.678;2024-02-21T01:42:14;9.10;99.90
9881;DHT22;4979;51.014;6.678;2024-02-21T01:44:40;9.20;99.90
9881;DHT22;4979;51.014;6.678;2024-02-21T01:47:06;9.10;99.90
9881;DHT22;4979;51.014;6.678;2024-02-21T01:49:33;9.10;99.90
9881;DHT22;4979;51.014;6.678;2024-02-21T01:51:59;9.10;99.90
9881;DHT22;4979;51.014;6.678;2024-02-21T01:54:26;9.10;99.90
9881;DHT22;4979;51.014;6.678;2024-02-21T01:56:54;9.10;99.90
9881;DHT22;4979;51.014;6.678;2024-02-21T01:59:21;9.10;99.90
9881;DHT22;4979;51.014;6.678;2024-02-21T02:01:47;9.10;99.90
9881;DHT22;4979;51.014;6.678;2024-02-21T02:04:13;9.10;99.90
9881;DHT22;4979;51.014;6.678;2024-02-21T02:06:39;9.10;99.90
9881;DHT22;4979;51.014;6.678;2024-02-21T02:09:05;9.10;99.90
9881;DHT22;4979;51.014;6.678;2024-02-21T02:11:32;9.10;99.90
9881;DHT22;4979;51.014;6.678;2024-02-21T02:13:57;9.10;99.90
9881;DHT22;4979;51.014;6.678;2024-02-21T02:16:23;9.10;99.90
9881;DHT22;4979;51.014;6.678;2024-02-21T02:18:48;9.10;99.90
9881;DHT22;4979;51.014;6.678;2024-02-21T02:23:51;9.10;99.90
9881;DHT22;4979;51.014;6.678;2024-02-21T02:26:16;9.10;99.90
9881;DHT22;4979;51.014;6.678;2024-02-21T02:28:42;9.10;99.90
9881;DHT22;4979;51.014;6.678;2024-02-21T02:31:07;9.10;99.90
9881;DHT22;4979;51.014;6.678;2024-02-21T02:33:33;9.20;99.90
9881;DHT22;4979;51.014;6.678;2024-02-21T02:35:58;9.10;99.90
9881;DHT22;4979;51.014;6.678;2024-02-21T02:38:24;9.10;99.90
9881;DHT22;4979;51.014;6.678;2024-02-21T02:40:49;9.10;99.90
9881;DHT22;4979;51.014;6.678;2024-02-21T02:43:15;9.10;99.90
9881;DHT22;4979;51.014;6.678;2024-02-21T02:45:40;9.20;99.90
9881;DHT22;4979;51.014;6.678;2024-02-21T02:48:06;9.10;99.90
9881;DHT22;4979;51.014;6.678;2024-02-21T02:50:32;9.10;99.90
9881;DHT22;4979;51.014;6.678;2024-02-21T02:52:58;9.10;99.90
9881;DHT22;4979;51.014;6.678;2024-02-21T02:55:23;9.10;99.90
9881;DHT22;4979;51.014;6.678;2024-02-21T02:57:49;9.10;99.90
9881;DHT22;4979;51.014;6.678;2024-02-21T03:00:14;9.10;99.90
9881;DHT22;4979;51.014;6.678;2024-02-21T03:02:42;9.10;99.90
9881;DHT22;4979;51.014;6.678;2024-02-21T03:05:19;9.10;99.90
9881;DHT22;4979;51.014;6.678;2024-02-21T03:07:45;9.10;99.90
9881;DHT22;4979;51.014;6.678;2024-02-21T03:10:11;9.10;99.90
9881;DHT22;4979;51.014;6.678;2024-02-21T03:12:37;9.10;99.90
9881;DHT22;4979;51.014;6.678;2024-02-21T03:15:04;9.10;99.90
9881;DHT22;4979;51.014;6.678;2024-02-21T03:17:30;9.10;99.90
9881;DHT22;4979;51.014;6.678;2024-02-21T03:19:57;9.10;99.90
9881;DHT22;4979;51.014;6.678;2024-02-21T03:22:22;9.10;99.90
9881;DHT22;4979;51.014;6.678;2024-02-21T03:24:48;9.10;99.90
9881;DHT22;4979;51.014;6.678;2024-02-21T03:27:14;9.10;99.90
9881;DHT22;4979;51.014;6.678;2024-02-21T03:29:40;9.10;99.90
9881;DHT22;4979;51.014;6.678;2024-02-21T03:32:05;9.10;99.90
9881;DHT22;4979;51.014;6.678;2024-02-21T03:34:31;9.10;99.90
9881;DHT22;4979;51.014;6.678;2024-02-21T03:36:56;9.10;99.90
9881;DHT22;4979;51.014;6.678;2024-02-21T03:39:22;9.10;99.90
9881;DHT22;4979;51.014;6.678;2024-02-21T03:41:47;9.10;99.90
9881;DHT22;4979;51.014;6.678;2024-02-21T03:44:13;9.10;99.90
9881;DHT22;4979;51.014;6.678;2024-02-21T03:46:39;9.10;99.90
9881;DHT22;4979;51.014;6.678;2024-02-21T03:49:04;9.10;99.90
9881;DHT22;4979;51.014;6.678;2024-02-21T03:51:30;9.10;99.90
9881;DHT22;4979;51.014;6.678;2024-02-21T03:53:55;9.10;99.90
9881;DHT22;4979;51.014;6.678;2024-02-21T03:56:21;9.10;99.90
9881;DHT22;4979;51.014;6.678;2024-02-21T03:58:46;9.10;99.90
9881;DHT22;4979;51.014;6.678;2024-02-21T04:01:12;9.10;99.90
9881;DHT22;4979;51.014;6.678;2024-02-21T04:03:40;9.10;99.90
9881;DHT22;4979;51.014;6.678;2024-02-21T04:06:05;9.10;99.90
9881;DHT22;4979;51.014;6.678;2024-02-21T04:08:31;9.10;99.90
9881;DHT22;4979;51.014;6.678;2024-02-21T04:10:57;9.10;99.90
9881;DHT22;4979;51.014;6.678;2024-02-21T04:13:22;9.10;99.90
9881;DHT22;4979;51.014;6.678;2024-02-21T04:15:48;9.10;99.90
9881;DHT22;4979;51.014;6.678;2024-02-21T04:18:13;9.10;99.90
9881;DHT22;4979;51.014;6.678;2024-02-21T04:20:40;9.10;99.90
9881;DHT22;4979;51.014;6.678;2024-02-21T04:23:06;9.10;99.90
9881;DHT22;4979;51.014;6.678;2024-02-21T04:25:31;9.10;99.90
9881;DHT22;4979;51.014;6.678;2024-02-21T04:27:57;9.10;99.90
9881;DHT22;4979;51.014;6.678;2024-02-21T04:30:22;9.10;99.90
9881;DHT22;4979;51.014;6.678;2024-02-21T04:32:48;9.10;99.90
9881;DHT22;4979;51.014;6.678;2024-02-21T04:35:13;9.10;99.90
9881;DHT22;4979;51.014;6.678;2024-02-21T04:37:39;9.10;99.90
9881;DHT22;4979;51.014;6.678;2024-02-21T04:40:05;9.10;99.90
9881;DHT22;4979;51.014;6.678;2024-02-21T04:42:31;9.10;99.90
9881;DHT22;4979;51.014;6.678;2024-02-21T04:44:56;9.10;99.90
9881;DHT22;4979;51.014;6.678;2024-02-21T04:47:22;9.10;99.90
9881;DHT22;4979;51.014;6.678;2024-02-21T04:49:49;9.10;99.90
9881;DHT22;4979;51.014;6.678;2024-02-21T04:52:14;9.10;99.90
9881;DHT22;4979;51.014;6.678;2024-02-21T04:54:40;9.10;99.90
9881;DHT22;4979;51.014;6.678;2024-02-21T04:57:05;9.10;99.90
9881;DHT22;4979;51.014;6.678;2024-02-21T04:59:31;9.10;99.90
9881;DHT22;4979;51.014;6.678;2024-02-21T05:01:57;9.10;99.90
9881;DHT22;4979;51.014;6.678;2024-02-21T05:04:24;9.10;99.90
9881;DHT22;4979;51.014;6.678;2024-02-21T05:06:49;9.10;99.90
9881;DHT22;4979;51.014;6.678;2024-02-21T05:09:15;9.10;99.90
9881;DHT22;4979;51.014;6.678;2024-02-21T05:11:41;9.10;99.90
9881;DHT22;4979;51.014;6.678;2024-02-21T05:14:06;9.10;99.90
9881;DHT22;4979;51.014;6.678;2024-02-21T05:16:32;9.10;99.90
9881;DHT22;4979;51.014;6.678;2024-02-21T05:18:58;9.10;99.90
9881;DHT22;4979;51.014;6.678;2024-02-21T05:21:24;9.10;99.90
9881;DHT22;4979;51.014;6.678;2024-02-21T05:23:50;9.10;99.90
9881;DHT22;4979;51.014;6.678;2024-02-21T05:26:25;9.10;99.90
9881;DHT22;4979;51.014;6.678;2024-02-21T05:28:51;9.10;99.90
9881;DHT22;4979;51.014;6.678;2024-02-21T05:31:20;9.10;99.90
9881;DHT22;4979;51.014;6.678;2024-02-21T05:33:46;9.10;99.90
9881;DHT22;4979;51.014;6.678;2024-02-21T05:36:13;9.10;99.90
9881;DHT22;4979;51.014;6.678;2024-02-21T05:38:39;9.10;99.90
9881;DHT22;4979;51.014;6.678;2024-02-21T05:41:04;9.10;99.90
9881;DHT22;4979;51.014;6.678;2024-02-21T05:43:30;9.10;99.90
9881;DHT22;4979;51.014;6.678;2024-02-21T05:45:56;9.10;99.90
9881;DHT22;4979;51.014;6.678;2024-02-21T05:48:22;9.10;99.90
9881;DHT22;4979;51.014;6.678;2024-02-21T05:50:48;9.10;99.90
9881;DHT22;4979;51.014;6.678;2024-02-21T05:53:13;9.10;99.90
9881;DHT22;4979;51.014;6.678;2024-02-21T05:55:39;9.10;99.90
9881;DHT22;4979;51.014;6.678;2024-02-21T05:58:04;9.10;99.90
9881;DHT22;4979;51.014;6.678;2024-02-21T06:00:31;9.10;99.90
9881;DHT22;4979;51.014;6.678;2024-02-21T06:02:57;9.10;99.90
9881;DHT22;4979;51.014;6.678;2024-02-21T06:05:23;9.10;99.90
9881;DHT22;4979;51.014;6.678;2024-02-21T06:07:48;9.10;99.90
9881;DHT22;4979;51.014;6.678;2024-02-21T06:10:14;9.10;99.90
9881;DHT22;4979;51.014;6.678;2024-02-21T06:12:39;9.10;99.90
9881;DHT22;4979;51.014;6.678;2024-02-21T06:15:05;9.10;99.90
9881;DHT22;4979;51.014;6.678;2024-02-21T06:17:31;9.00;99.90
9881;DHT22;4979;51.014;6.678;2024-02-21T06:19:57;9.10;99.90
9881;DHT22;4979;51.014;6.678;2024-02-21T06:22:22;9.10;99.90
9881;DHT22;4979;51.014;6.678;2024-02-21T06:24:48;9.10;99.90
9881;DHT22;4979;51.014;6.678;2024-02-21T06:27:13;9.10;99.90
9881;DHT22;4979;51.014;6.678;2024-02-21T06:29:41;9.10;99.90
9881;DHT22;4979;51.014;6.678;2024-02-21T06:32:07;9.10;99.90
9881;DHT22;4979;51.014;6.678;2024-02-21T06:34:32;9.10;99.90
9881;DHT22;4979;51.014;6.678;2024-02-21T06:36:58;9.10;99.90
9881;DHT22;4979;51.014;6.678;2024-02-21T06:39:24;9.10;99.90
9881;DHT22;4979;51.014;6.678;2024-02-21T06:41:50;9.00;99.90
9881;DHT22;4979;51.014;6.678;2024-02-21T06:44:17;9.00;99.90
9881;DHT22;4979;51.014;6.678;2024-02-21T06:46:42;9.00;99.90
9881;DHT22;4979;51.014;6.678;2024-02-21T06:49:08;9.00;99.90
9881;DHT22;4979;51.014;6.678;2024-02-21T06:51:34;9.00;99.90
9881;DHT22;4979;51.014;6.678;2024-02-21T06:54:00;9.00;99.90
9881;DHT22;4979;51.014;6.678;2024-02-21T06:56:26;9.00;99.90
9881;DHT22;4979;51.014;6.678;2024-02-21T06:58:56;9.00;99.90
9881;DHT22;4979;51.014;6.678;2024-02-21T07:01:22;9.00;99.90
9881;DHT22;4979;51.014;6.678;2024-02-21T07:03:48;9.00;99.90
9881;DHT22;4979;51.014;6.678;2024-02-21T07:06:14;9.00;99.90
9881;DHT22;4979;51.014;6.678;2024-02-21T07:08:39;9.00;99.90
9881;DHT22;4979;51.014;6.678;2024-02-21T07:11:05;9.00;99.90
9881;DHT22;4979;51.014;6.678;2024-02-21T07:13:31;9.00;99.90
9881;DHT22;4979;51.014;6.678;2024-02-21T07:15:57;9.00;99.90
9881;DHT22;4979;51.014;6.678;2024-02-21T07:18:22;9.00;99.90
9881;DHT22;4979;51.014;6.678;2024-02-21T07:20:51;9.00;99.90
9881;DHT22;4979;51.014;6.678;2024-02-21T07:23:16;9.10;99.90
9881;DHT22;4979;51.014;6.678;2024-02-21T07:25:42;9.10;99.90
9881;DHT22;4979;51.014;6.678;2024-02-21T07:28:07;9.10;99.90
9881;DHT22;4979;51.014;6.678;2024-02-21T07:30:33;9.10;99.90
9881;DHT22;4979;51.014;6.678;2024-02-21T07:32:58;9.10;99.90
9881;DHT22;4979;51.014;6.678;2024-02-21T07:35:24;9.10;99.90
9881;DHT22;4979;51.014;6.678;2024-02-21T07:37:49;9.10;99.90
9881;DHT22;4979;51.014;6.678;2024-02-21T07:40:16;9.10;99.90
9881;DHT22;4979;51.014;6.678;2024-02-21T07:42:42;9.10;99.90
9881;DHT22;4979;51.014;6.678;2024-02-21T07:45:08;9.10;99.90
9881;DHT22;4979;51.014;6.678;2024-02-21T07:47:34;9.10;99.90
9881;DHT22;4979;51.014;6.678;2024-02-21T07:50:02;9.10;99.90
9881;DHT22;4979;51.014;6.678;2024-02-21T07:52:28;9.10;99.90
9881;DHT22;4979;51.014;6.678;2024-02-21T07:54:53;9.10;99.90
9881;DHT22;4979;51.014;6.678;2024-02-21T07:57:19;9.20;99.90
9881;DHT22;4979;51.014;6.678;2024-02-21T07:59:44;9.20;99.90
9881;DHT22;4979;51.014;6.678;2024-02-21T08:02:13;9.20;99.90
9881;DHT22;4979;51.014;6.678;2024-02-21T08:04:39;9.30;99.90
9881;DHT22;4979;51.014;6.678;2024-02-21T08:07:04;9.30;99.90
9881;DHT22;4979;51.014;6.678;2024-02-21T08:09:30;9.30;99.90
9881;DHT22;4979;51.014;6.678;2024-02-21T08:11:56;9.30;99.90
9881;DHT22;4979;51.014;6.678;2024-02-21T08:14:22;9.30;99.90
9881;DHT22;4979;51.014;6.678;2024-02-21T08:16:48;9.30;99.90
9881;DHT22;4979;51.014;6.678;2024-02-21T08:19:13;9.20;99.90
9881;DHT22;4979;51.014;6.678;2024-02-21T08:21:39;9.20;99.90
9881;DHT22;4979;51.014;6.678;2024-02-21T08:24:05;9.20;99.90
9881;DHT22;4979;51.014;6.678;2024-02-21T08:26:30;9.20;99.90
9881;DHT22;4979;51.014;6.678;2024-02-21T08:28:57;9.20;99.90
9881;DHT22;4979;51.014;6.678;2024-02-21T08:31:26;9.20;99.90
9881;DHT22;4979;51.014;6.678;2024-02-21T08:33:57;9.20;99.90
9881;DHT22;4979;51.014;6.678;2024-02-21T08:36:28;9.20;99.90
9881;DHT22;4979;51.014;6.678;2024-02-21T08:38:54;9.20;99.90
9881;DHT22;4979;51.014;6.678;2024-02-21T08:41:20;9.20;99.90
9881;DHT22;4979;51.014;6.678;2024-02-21T08:43:48;9.20;99.90
9881;DHT22;4979;51.014;6.678;2024-02-21T08:46:14;9.20;99.90
9881;DHT22;4979;51.014;6.678;2024-02-21T08:48:40;9.20;99.90
9881;DHT22;4979;51.014;6.678;2024-02-21T08:51:06;9.20;99.90
9881;DHT22;4979;51.014;6.678;2024-02-21T08:53:31;9.30;99.90
9881;DHT22;4979;51.014;6.678;2024-02-21T08:55:57;9.30;99.90
9881;DHT22;4979;51.014;6.678;2024-02-21T08:58:22;9.40;99.90
9881;DHT22;4979;51.014;6.678;2024-02-21T09:00:49;9.50;99.90
9881;DHT22;4979;51.014;6.678;2024-02-21T09:03:16;9.60;99.90
9881;DHT22;4979;51.014;6.678;2024-02-21T09:05:43;9.70;99.90
9881;DHT22;4979;51.014;6.678;2024-02-21T09:08:08;9.70;99.90
9881;DHT22;4979;51.014;6.678;2024-02-21T09:10:34;9.70;99.90
9881;DHT22;4979;51.014;6.678;2024-02-21T09:13:00;9.80;99.90
9881;DHT22;4979;51.014;6.678;2024-02-21T09:15:25;9.70;99.90
9881;DHT22;4979;51.014;6.678;2024-02-21T09:17:52;9.70;99.90
9881;DHT22;4979;51.014;6.678;2024-02-21T09:20:17;9.70;99.90
9881;DHT22;4979;51.014;6.678;2024-02-21T09:22:43;9.80;99.90
9881;DHT22;4979;51.014;6.678;2024-02-21T09:25:09;9.80;99.90
9881;DHT22;4979;51.014;6.678;2024-02-21T09:27:37;9.90;99.90
9881;DHT22;4979;51.014;6.678;2024-02-21T09:30:03;9.90;99.90
9881;DHT22;4979;51.014;6.678;2024-02-21T09:32:30;9.90;99.90
9881;DHT22;4979;51.014;6.678;2024-02-21T09:34:55;9.90;99.90
9881;DHT22;4979;51.014;6.678;2024-02-21T09:37:21;9.80;99.90
9881;DHT22;4979;51.014;6.678;2024-02-21T09:39:47;9.90;99.90
9881;DHT22;4979;51.014;6.678;2024-02-21T09:42:14;10.00;99.90
9881;DHT22;4979;51.014;6.678;2024-02-21T09:44:45;10.10;99.90
9881;DHT22;4979;51.014;6.678;2024-02-21T09:47:17;10.10;99.90
9881;DHT22;4979;51.014;6.678;2024-02-21T09:49:44;10.10;99.90
9881;DHT22;4979;51.014;6.678;2024-02-21T09:52:12;10.20;99.90
9881;DHT22;4979;51.014;6.678;2024-02-21T09:54:39;10.20;99.90
9881;DHT22;4979;51.014;6.678;2024-02-21T09:57:08;10.30;99.90
9881;DHT22;4979;51.014;6.678;2024-02-21T09:59:33;10.40;99.90
9881;DHT22;4979;51.014;6.678;2024-02-21T10:01:59;10.40;99.90
9881;DHT22;4979;51.014;6.678;2024-02-21T10:04:26;10.50;99.90
9881;DHT22;4979;51.014;6.678;2024-02-21T10:06:53;10.50;99.90
9881;DHT22;4979;51.014;6.678;2024-02-21T10:09:25;10.60;99.90
9881;DHT22;4979;51.014;6.678;2024-02-21T10:11:55;10.40;99.90
9881;DHT22;4979;51.014;6.678;2024-02-21T10:14:20;10.40;99.90
9881;DHT22;4979;51.014;6.678;2024-02-21T10:16:48;10.60;99.90
9881;DHT22;4979;51.014;6.678;2024-02-21T10:19:20;10.60;99.90
9881;DHT22;4979;51.014;6.678;2024-02-21T10:22:18;10.60;99.90
9881;DHT22;4979;51.014;6.678;2024-02-21T10:24:43;10.70;99.90
9881;DHT22;4979;51.014;6.678;2024-02-21T10:27:09;10.80;99.90
9881;DHT22;4979;51.014;6.678;2024-02-21T10:29:36;10.80;99.90
9881;DHT22;4979;51.014;6.678;2024-02-21T10:32:11;10.90;99.90
9881;DHT22;4979;51.014;6.678;2024-02-21T10:34:38;11.00;99.90
9881;DHT22;4979;51.014;6.678;2024-02-21T10:37:07;11.00;99.90
9881;DHT22;4979;51.014;6.678;2024-02-21T10:39:40;11.20;99.90
9881;DHT22;4979;51.014;6.678;2024-02-21T10:42:06;11.20;99.90
9881;DHT22;4979;51.014;6.678;2024-02-21T10:44:36;11.10;99.90
9881;DHT22;4979;51.014;6.678;2024-02-21T10:47:07;11.10;99.90
9881;DHT22;4979;51.014;6.678;2024-02-21T10:49:38;11.20;99.90
9881;DHT22;4979;51.014;6.678;2024-02-21T10:55:03;11.20;99.90
9881;DHT22;4979;51.014;6.678;2024-02-21T10:57:31;11.10;99.90
9881;DHT22;4979;51.014;6.678;2024-02-21T10:59:58;11.30;99.90
9881;DHT22;4979;51.014;6.678;2024-02-21T11:02:25;11.50;99.90
9881;DHT22;4979;51.014;6.678;2024-02-21T11:04:52;11.50;99.90
9881;DHT22;4979;51.014;6.678;2024-02-21T11:07:19;11.30;99.90
9881;DHT22;4979;51.014;6.678;2024-02-21T11:09:52;11.20;99.90
9881;DHT22;4979;51.014;6.678;2024-02-21T11:12:21;11.40;99.90
9881;DHT22;4979;51.014;6.678;2024-02-21T11:14:47;11.40;99.90
9881;DHT22;4979;51.014;6.678;2024-02-21T11:17:20;11.30;99.90
9881;DHT22;4979;51.014;6.678;2024-02-21T11:19:52;11.30;99.90
9881;DHT22;4979;51.014;6.678;2024-02-21T11:22:18;11.40;99.90
9881;DHT22;4979;51.014;6.678;2024-02-21T11:24:45;11.30;99.90
9881;DHT22;4979;51.014;6.678;2024-02-21T11:27:16;11.20;99.90
9881;DHT22;4979;51.014;6.678;2024-02-21T11:29:44;11.30;99.90
9881;DHT22;4979;51.014;6.678;2024-02-21T11:32:11;11.30;99.90
9881;DHT22;4979;51.014;6.678;2024-02-21T11:34:39;11.40;99.90
9881;DHT22;4979;51.014;6.678;2024-02-21T11:37:14;11.40;99.90
9881;DHT22;4979;51.014;6.678;2024-02-21T11:39:43;11.50;99.90
9881;DHT22;4979;51.014;6.678;2024-02-21T11:42:09;11.40;99.90
9881;DHT22;4979;51.014;6.678;2024-02-21T11:44:36;11.40;99.90
9881;DHT22;4979;51.014;6.678;2024-02-21T11:47:06;11.50;99.90
9881;DHT22;4979;51.014;6.678;2024-02-21T11:49:38;11.40;99.90
9881;DHT22;4979;51.014;6.678;2024-02-21T11:52:05;11.40;99.90
9881;DHT22;4979;51.014;6.678;2024-02-21T11:54:31;11.40;99.90
9881;DHT22;4979;51.014;6.678;2024-02-21T11:56:56;11.40;99.90
9881;DHT22;4979;51.014;6.678;2024-02-21T11:59:22;11.40;99.90
9881;DHT22;4979;51.014;6.678;2024-02-21T12:01:48;11.40;99.90
9881;DHT22;4979;51.014;6.678;2024-02-21T12:04:15;11.40;99.90
9881;DHT22;4979;51.014;6.678;2024-02-21T12:06:43;11.40;99.90
9881;DHT22;4979;51.014;6.678;2024-02-21T12:09:09;11.30;99.90
9881;DHT22;4979;51.014;6.678;2024-02-21T12:11:35;11.20;99.90
9881;DHT22;4979;51.014;6.678;2024-02-21T12:14:01;11.30;99.90
9881;DHT22;4979;51.014;6.678;2024-02-21T12:16:32;11.30;99.90
9881;DHT22;4979;51.014;6.678;2024-02-21T12:18:59;11.30;99.90
9881;DHT22;4979;51.014;6.678;2024-02-21T12:21:26;11.20;99.90
9881;DHT22;4979;51.014;6.678;2024-02-21T12:23:54;11.20;99.90
9881;DHT22;4979;51.014;6.678;2024-02-21T12:26:20;11.30;99.90
9881;DHT22;4979;51.014;6.678;2024-02-21T12:28:46;11.30;99.90
9881;DHT22;4979;51.014;6.678;2024-02-21T12:31:12;12.50;99.90
9881;DHT22;4979;51.014;6.678;2024-02-21T12:33:38;11.30;99.90
9881;DHT22;4979;51.014;6.678;2024-02-21T12:36:03;11.40;99.90
9881;DHT22;4979;51.014;6.678;2024-02-21T12:38:29;11.50;99.90
9881;DHT22;4979;51.014;6.678;2024-02-21T12:40:55;11.70;99.90
9881;DHT22;4979;51.014;6.678;2024-02-21T12:43:22;11.90;99.90
9881;DHT22;4979;51.014;6.678;2024-02-21T12:45:48;12.00;99.90
9881;DHT22;4979;51.014;6.678;2024-02-21T12:48:14;12.00;99.90
9881;DHT22;4979;51.014;6.678;2024-02-21T12:50:50;12.00;99.90
9881;DHT22;4979;51.014;6.678;2024-02-21T12:53:21;12.20;99.90
9881;DHT22;4979;51.014;6.678;2024-02-21T12:55:48;12.00;99.90
9881;DHT22;4979;51.014;6.678;2024-02-21T12:58:14;12.00;99.90
9881;DHT22;4979;51.014;6.678;2024-02-21T13:00:41;12.20;99.90
9881;DHT22;4979;51.014;6.678;2024-02-21T13:03:06;12.40;99.90
9881;DHT22;4979;51.014;6.678;2024-02-21T13:05:32;12.40;99.90
9881;DHT22;4979;51.014;6.678;2024-02-21T13:08:00;12.50;99.90
9881;DHT22;4979;51.014;6.678;2024-02-21T13:10:26;12.60;99.90
9881;DHT22;4979;51.014;6.678;2024-02-21T13:12:52;12.70;99.90
9881;DHT22;4979;51.014;6.678;2024-02-21T13:15:18;12.80;99.90
9881;DHT22;4979;51.014;6.678;2024-02-21T13:17:44;12.80;99.90
9881;DHT22;4979;51.014;6.678;2024-02-21T13:20:10;12.80;99.90
9881;DHT22;4979;51.014;6.678;2024-02-21T13:22:36;12.80;99.90
9881;DHT22;4979;51.014;6.678;2024-02-21T13:25:02;12.90;99.90
9881;DHT22;4979;51.014;6.678;2024-02-21T13:27:28;12.80;99.90
9881;DHT22;4979;51.014;6.678;2024-02-21T13:29:53;12.70;99.90
9881;DHT22;4979;51.014;6.678;2024-02-21T13:32:19;12.60;99.90
9881;DHT22;4979;51.014;6.678;2024-02-21T13:34:44;12.50;99.90
9881;DHT22;4979;51.014;6.678;2024-02-21T13:37:10;12.60;99.90
9881;DHT22;4979;51.014;6.678;2024-02-21T13:39:36;12.40;99.90
9881;DHT22;4979;51.014;6.678;2024-02-21T13:42:02;12.50;99.90
9881;DHT22;4979;51.014;6.678;2024-02-21T13:44:31;12.40;99.90
9881;DHT22;4979;51.014;6.678;2024-02-21T13:46:57;12.40;99.90
9881;DHT22;4979;51.014;6.678;2024-02-21T13:49:22;12.40;99.90
9881;DHT22;4979;51.014;6.678;2024-02-21T13:51:48;12.30;99.90
9881;DHT22;4979;51.014;6.678;2024-02-21T13:54:13;12.30;99.90
9881;DHT22;4979;51.014;6.678;2024-02-21T13:56:42;12.40;99.90
9881;DHT22;4979;51.014;6.678;2024-02-21T13:59:08;12.50;99.90
9881;DHT22;4979;51.014;6.678;2024-02-21T14:01:34;12.50;99.90
9881;DHT22;4979;51.014;6.678;2024-02-21T14:04:01;12.60;99.90
9881;DHT22;4979;51.014;6.678;2024-02-21T14:06:27;12.60;99.90
9881;DHT22;4979;51.014;6.678;2024-02-21T14:08:52;12.50;99.90
9881;DHT22;4979;51.014;6.678;2024-02-21T14:11:18;12.50;99.90
9881;DHT22;4979;51.014;6.678;2024-02-21T14:13:43;12.50;99.90
9881;DHT22;4979;51.014;6.678;2024-02-21T14:16:10;12.60;99.90
9881;DHT22;4979;51.014;6.678;2024-02-21T14:18:39;12.60;99.90
9881;DHT22;4979;51.014;6.678;2024-02-21T14:21:06;12.60;99.90
9881;DHT22;4979;51.014;6.678;2024-02-21T14:23:31;12.60;99.90
9881;DHT22;4979;51.014;6.678;2024-02-21T14:25:59;12.60;99.90
9881;DHT22;4979;51.014;6.678;2024-02-21T14:28:24;12.60;99.90
9881;DHT22;4979;51.014;6.678;2024-02-21T14:30:50;12.60;99.90
9881;DHT22;4979;51.014;6.678;2024-02-21T14:33:19;12.60;99.90
9881;DHT22;4979;51.014;6.678;2024-02-21T14:35:44;12.50;99.90
9881;DHT22;4979;51.014;6.678;2024-02-21T14:38:10;12.50;99.90
9881;DHT22;4979;51.014;6.678;2024-02-21T14:40:35;12.50;99.90
9881;DHT22;4979;51.014;6.678;2024-02-21T14:43:01;12.50;99.90
9881;DHT22;4979;51.014;6.678;2024-02-21T14:45:27;12.50;99.90
9881;DHT22;4979;51.014;6.678;2024-02-21T14:47:52;12.50;99.90
9881;DHT22;4979;51.014;6.678;2024-02-21T14:50:18;12.50;99.90
9881;DHT22;4979;51.014;6.678;2024-02-21T14:52:44;12.50;99.90
9881;DHT22;4979;51.014;6.678;2024-02-21T14:55:09;12.50;99.90
9881;DHT22;4979;51.014;6.678;2024-02-21T14:57:35;12.40;99.90
9881;DHT22;4979;51.014;6.678;2024-02-21T15:00:01;12.40;99.90
9881;DHT22;4979;51.014;6.678;2024-02-21T15:02:28;12.40;99.90
9881;DHT22;4979;51.014;6.678;2024-02-21T15:04:53;12.30;99.90
9881;DHT22;4979;51.014;6.678;2024-02-21T15:07:22;12.20;99.90
9881;DHT22;4979;51.014;6.678;2024-02-21T15:09:51;12.20;99.90
9881;DHT22;4979;51.014;6.678;2024-02-21T15:12:17;12.10;99.90
9881;DHT22;4979;51.014;6.678;2024-02-21T15:14:43;12.10;99.90
9881;DHT22;4979;51.014;6.678;2024-02-21T15:17:10;12.10;99.90
9881;DHT22;4979;51.014;6.678;2024-02-21T15:19:36;12.10;99.90
9881;DHT22;4979;51.014;6.678;2024-02-21T15:22:04;12.00;99.90
9881;DHT22;4979;51.014;6.678;2024-02-21T15:24:29;12.00;99.90
9881;DHT22;4979;51.014;6.678;2024-02-21T15:26:55;12.00;99.90
9881;DHT22;4979;51.014;6.678;2024-02-21T15:29:21;11.90;99.90
9881;DHT22;4979;51.014;6.678;2024-02-21T15:31:48;11.90;99.90
9881;DHT22;4979;51.014;6.678;2024-02-21T15:34:14;11.90;99.90
9881;DHT22;4979;51.014;6.678;2024-02-21T15:36:43;11.80;99.90
9881;DHT22;4979;51.014;6.678;2024-02-21T15:39:08;11.80;99.90
9881;DHT22;4979;51.014;6.678;2024-02-21T15:41:36;11.80;99.90
9881;DHT22;4979;51.014;6.678;2024-02-21T15:44:01;11.70;99.90
9881;DHT22;4979;51.014;6.678;2024-02-21T15:46:29;11.70;99.90
9881;DHT22;4979;51.014;6.678;2024-02-21T15:48:56;11.70;99.90
9881;DHT22;4979;51.014;6.678;2024-02-21T15:51:22;11.70;99.90
9881;DHT22;4979;51.014;6.678;2024-02-21T15:53:48;11.70;99.90
9881;DHT22;4979;51.014;6.678;2024-02-21T15:56:14;11.60;99.90
9881;DHT22;4979;51.014;6.678;2024-02-21T15:58:40;11.50;99.90
9881;DHT22;4979;51.014;6.678;2024-02-21T16:01:06;11.40;99.90
9881;DHT22;4979;51.014;6.678;2024-02-21T16:03:32;11.40;99.90
9881;DHT22;4979;51.014;6.678;2024-02-21T16:05:57;11.40;99.90
9881;DHT22;4979;51.014;6.678;2024-02-21T16:08:23;11.30;99.90
9881;DHT22;4979;51.014;6.678;2024-02-21T16:10:49;11.40;99.90